createdAt,value
2022-11-20T00:00:24.711Z,3.42
2022-11-20T00:02:52.143Z,3.40
2022-11-20T00:05:20.450Z,3.70
2022-11-20T00:07:47.850Z,2.97
2022-11-20T00:10:15.254Z,3.03
2022-11-20T00:12:42.587Z,3.47
2022-11-20T00:15:11.044Z,3.40
2022-11-20T00:17:39.745Z,3.78
2022-11-20T00:20:07.663Z,3.47
2022-11-20T00:22:35.073Z,3.65
2022-11-20T00:25:02.428Z,4.28
2022-11-20T00:27:29.799Z,4.20
2022-11-20T00:29:57.194Z,4.30
2022-11-20T00:32:25.571Z,3.35
2022-11-20T00:34:54.351Z,2.92
2022-11-20T00:37:21.740Z,2.70
2022-11-20T00:39:49.211Z,2.40
2022-11-20T00:42:16.592Z,2.30
2022-11-20T00:44:44.013Z,2.47
2022-11-20T00:47:11.433Z,2.10
2022-11-20T00:49:38.824Z,3.75
2022-11-20T00:52:07.740Z,4.60
2022-11-20T00:54:35.101Z,2.60
2022-11-20T00:57:02.488Z,2.58
2022-11-20T00:59:29.912Z,2.42
2022-11-20T01:01:57.286Z,2.92
2022-11-20T01:04:24.665Z,3.40
2022-11-20T01:06:52.055Z,3.40
2022-11-20T01:09:21.045Z,2.72
2022-11-20T01:11:48.602Z,3.20
2022-11-20T01:14:17.313Z,2.97
2022-11-20T01:16:45.674Z,2.70
2022-11-20T01:19:21.802Z,2.75
2022-11-20T01:21:50.470Z,3.20
2022-11-20T01:24:18.999Z,2.75
2022-11-20T01:26:49.777Z,2.83
2022-11-20T01:29:18.202Z,2.25
2022-11-20T01:31:46.098Z,2.17
2022-11-20T01:34:14.702Z,2.35
2022-11-20T01:36:43.417Z,2.30
2022-11-20T01:39:12.872Z,2.08
2022-11-20T01:41:58.336Z,2.20
2022-11-20T01:44:40.601Z,2.15
2022-11-20T01:47:10.695Z,3.40
2022-11-20T01:49:40.732Z,3.83
2022-11-20T01:52:12.451Z,4.07
2022-11-20T01:54:42.303Z,6.15
2022-11-20T01:59:39.858Z,16.80
2022-11-20T02:02:07.298Z,16.38
2022-11-20T02:04:36.014Z,8.38
2022-11-20T02:07:04.405Z,5.55
2022-11-20T02:09:31.803Z,5.47
2022-11-20T02:11:59.949Z,6.57
2022-11-20T02:14:27.279Z,5.43
2022-11-20T02:16:56.038Z,5.60
2022-11-20T02:19:25.233Z,5.88
2022-11-20T02:21:58.578Z,6.50
2022-11-20T02:24:27.330Z,6.90
2022-11-20T02:26:55.937Z,6.28
2022-11-20T02:29:27.037Z,4.50
2022-11-20T02:31:56.104Z,3.45
2022-11-20T02:34:23.465Z,4.20
2022-11-20T02:36:51.342Z,5.25
2022-11-20T02:39:18.961Z,5.90
2022-11-20T02:41:47.951Z,5.65
2022-11-20T02:44:15.352Z,5.30
2022-11-20T02:46:42.706Z,5.13
2022-11-20T02:49:10.079Z,4.85
2022-11-20T02:51:37.438Z,4.72
2022-11-20T02:54:05.210Z,5.30
2022-11-20T02:56:32.810Z,4.93
2022-11-20T02:59:01.519Z,4.43
2022-11-20T03:01:28.925Z,4.70
2022-11-20T03:03:56.989Z,5.10
2022-11-20T03:06:24.452Z,5.20
2022-11-20T03:08:51.808Z,4.25
2022-11-20T03:11:19.768Z,3.72
2022-11-20T03:13:47.162Z,3.97
2022-11-20T03:16:16.723Z,3.40
2022-11-20T03:18:44.281Z,3.35
2022-11-20T03:21:12.257Z,3.00
2022-11-20T03:23:39.858Z,3.30
2022-11-20T03:26:14.345Z,3.47
2022-11-20T03:28:41.987Z,3.08
2022-11-20T03:31:10.121Z,3.65
2022-11-20T03:33:38.885Z,3.03
2022-11-20T03:36:07.115Z,2.90
2022-11-20T03:38:34.636Z,2.78
2022-11-20T03:41:02.786Z,3.05
2022-11-20T03:43:30.240Z,3.25
2022-11-20T03:45:57.645Z,3.13
2022-11-20T03:48:25.314Z,2.75
2022-11-20T03:50:54.338Z,2.70
2022-11-20T03:53:21.785Z,2.45
2022-11-20T03:55:52.469Z,2.65
2022-11-20T03:58:19.873Z,2.38
2022-11-20T04:00:47.259Z,2.33
2022-11-20T04:03:14.621Z,2.63
2022-11-20T04:05:42.007Z,2.15
2022-11-20T04:08:10.699Z,2.65
2022-11-20T04:10:38.526Z,2.35
2022-11-20T04:13:05.874Z,1.90
2022-11-20T04:15:37.175Z,2.10
2022-11-20T04:18:05.882Z,2.88
2022-11-20T04:20:33.252Z,2.33
2022-11-20T04:23:00.658Z,2.70
2022-11-20T04:25:29.364Z,2.97
2022-11-20T04:27:56.922Z,3.03
2022-11-20T04:30:24.298Z,3.15
2022-11-20T04:32:51.668Z,3.13
2022-11-20T04:35:19.026Z,2.97
2022-11-20T04:37:46.379Z,3.25
2022-11-20T04:40:14.100Z,3.15
2022-11-20T04:42:42.815Z,3.40
2022-11-20T04:45:10.388Z,2.95
2022-11-20T04:47:37.748Z,2.90
2022-11-20T04:50:05.374Z,3.10
2022-11-20T04:52:32.761Z,2.10
2022-11-20T04:55:00.136Z,2.03
2022-11-20T04:57:27.487Z,2.35
2022-11-20T04:59:56.211Z,2.20
2022-11-20T05:02:23.844Z,2.80
2022-11-20T05:04:51.205Z,2.97
2022-11-20T05:07:18.631Z,3.38
2022-11-20T05:09:46.074Z,3.17
2022-11-20T05:12:13.410Z,2.63
2022-11-20T05:14:40.782Z,3.55
2022-11-20T05:17:11.427Z,2.33
2022-11-20T05:19:38.796Z,2.35
2022-11-20T05:22:06.222Z,4.22
2022-11-20T05:24:33.584Z,4.22
2022-11-20T05:27:00.936Z,3.20
2022-11-20T05:29:28.271Z,3.25
2022-11-20T05:31:55.624Z,3.58
2022-11-20T05:34:24.319Z,5.38
2022-11-20T05:36:51.717Z,7.25
2022-11-20T05:39:19.475Z,6.32
2022-11-20T05:41:47.078Z,4.72
2022-11-20T05:44:15.289Z,4.35
2022-11-20T05:46:42.625Z,4.25
2022-11-20T05:49:10.103Z,5.22
2022-11-20T05:51:38.810Z,5.63
2022-11-20T05:54:06.245Z,5.13
2022-11-20T05:56:33.598Z,4.03
2022-11-20T05:59:00.944Z,4.05
2022-11-20T06:01:28.330Z,3.80
2022-11-20T06:03:56.064Z,3.67
2022-11-20T06:06:23.528Z,3.88
2022-11-20T06:08:52.237Z,3.17
2022-11-20T06:11:19.682Z,3.67
2022-11-20T06:13:47.532Z,3.38
2022-11-20T06:16:15.734Z,3.72
2022-11-20T06:18:43.101Z,3.60
2022-11-20T06:21:11.510Z,3.50
2022-11-20T06:23:39.331Z,3.00
2022-11-20T06:26:08.762Z,3.22
2022-11-20T06:28:36.142Z,3.80
2022-11-20T06:31:03.831Z,3.42
2022-11-20T06:33:31.467Z,3.10
2022-11-20T06:36:01.620Z,3.20
2022-11-20T06:38:31.326Z,3.20
2022-11-20T06:40:58.726Z,4.57
2022-11-20T06:43:27.430Z,4.50
2022-11-20T06:45:55.015Z,4.50
2022-11-20T06:48:22.455Z,3.85
2022-11-20T06:50:49.860Z,4.32
2022-11-20T06:53:17.512Z,5.22
2022-11-20T06:55:45.569Z,6.72
2022-11-20T06:58:12.996Z,8.02
2022-11-20T07:00:41.733Z,7.18
2022-11-20T07:03:10.153Z,7.82
2022-11-20T07:05:37.839Z,7.45
2022-11-20T07:08:05.664Z,7.47
2022-11-20T07:10:33.233Z,6.03
2022-11-20T07:13:00.680Z,6.43
2022-11-20T07:15:28.526Z,5.20
2022-11-20T07:17:57.308Z,5.10
2022-11-20T07:20:24.734Z,3.97
2022-11-20T07:22:54.983Z,3.85
2022-11-20T07:25:22.384Z,4.35
2022-11-20T07:27:49.787Z,4.05
2022-11-20T07:30:17.336Z,4.82
2022-11-20T07:32:47.885Z,5.05
2022-11-20T07:35:16.740Z,6.30
2022-11-20T07:37:44.245Z,5.22
2022-11-20T07:40:12.358Z,5.90
2022-11-20T07:42:39.743Z,5.43
2022-11-20T07:45:07.636Z,5.80
2022-11-20T07:47:36.968Z,4.18
2022-11-20T07:50:04.567Z,5.68
2022-11-20T07:52:33.281Z,4.90
2022-11-20T07:55:00.670Z,5.50
2022-11-20T07:57:28.557Z,5.32
2022-11-20T07:59:56.054Z,4.35
2022-11-20T08:02:23.446Z,3.88
2022-11-20T08:04:50.802Z,3.78
2022-11-20T08:07:18.256Z,4.65
2022-11-20T08:09:47.026Z,2.95
2022-11-20T08:12:38.522Z,3.00
2022-11-20T08:15:12.610Z,3.58
2022-11-20T08:17:40.607Z,3.50
2022-11-20T08:20:08.411Z,4.55
2022-11-20T08:22:35.780Z,4.60
2022-11-20T08:25:04.691Z,3.75
2022-11-20T08:27:33.705Z,2.43
2022-11-20T08:30:01.184Z,1.47
2022-11-20T08:32:28.628Z,1.83
2022-11-20T08:34:56.000Z,1.50
2022-11-20T08:37:23.346Z,2.10
2022-11-20T08:39:50.734Z,2.28
2022-11-20T08:42:19.441Z,2.65
2022-11-20T08:44:46.827Z,3.08
2022-11-20T08:47:14.187Z,2.28
2022-11-20T08:49:41.547Z,2.53
2022-11-20T08:52:09.000Z,3.10
2022-11-20T08:54:36.376Z,2.80
2022-11-20T08:57:03.750Z,2.70
2022-11-20T09:00:03.748Z,2.00
2022-11-20T09:02:20.313Z,1.83
2022-11-20T09:04:47.857Z,1.60
2022-11-20T09:07:15.279Z,1.38
2022-11-20T09:09:42.711Z,1.33
2022-11-20T09:12:10.107Z,1.52
2022-11-20T09:14:38.922Z,1.60
2022-11-20T09:17:08.424Z,1.83
2022-11-20T09:19:36.550Z,2.00
2022-11-20T09:22:04.051Z,2.10
2022-11-20T09:24:31.417Z,3.92
2022-11-20T09:26:59.284Z,4.05
2022-11-20T09:29:26.740Z,3.50
2022-11-20T09:31:55.666Z,2.42
2022-11-20T09:34:23.041Z,2.00
2022-11-20T09:36:50.417Z,1.45
2022-11-20T09:39:17.819Z,1.00
2022-11-20T09:41:51.795Z,0.88
2022-11-20T09:44:26.907Z,3.05
2022-11-20T09:46:59.185Z,3.15
2022-11-20T09:49:32.499Z,1.02
2022-11-20T09:52:01.212Z,0.98
2022-11-20T09:54:31.370Z,1.20
2022-11-20T09:57:01.387Z,1.13
2022-11-20T09:59:34.220Z,1.15
2022-11-20T10:02:03.959Z,1.63
2022-11-20T10:04:36.776Z,2.95
2022-11-20T10:07:31.422Z,2.40
2022-11-20T10:09:57.813Z,2.35
2022-11-20T10:12:29.224Z,1.98
2022-11-20T10:15:08.124Z,2.20
2022-11-20T10:17:56.200Z,2.60
2022-11-20T10:20:29.812Z,2.15
2022-11-20T10:23:05.878Z,2.00
2022-11-20T10:25:38.697Z,2.35
2022-11-20T10:28:15.723Z,2.40
2022-11-20T10:30:44.455Z,2.30
2022-11-20T10:33:16.813Z,2.00
2022-11-20T10:35:48.089Z,2.10
2022-11-20T10:38:18.769Z,1.60
2022-11-20T10:40:48.678Z,1.67
2022-11-20T10:43:19.533Z,1.42
2022-11-20T10:45:52.278Z,1.63
2022-11-20T10:48:23.808Z,1.67
2022-11-20T10:51:05.430Z,2.15
2022-11-20T10:53:38.970Z,2.10
2022-11-20T10:56:07.674Z,2.00
2022-11-20T10:58:40.332Z,1.60
2022-11-20T11:01:15.424Z,2.13
2022-11-20T11:03:45.286Z,2.08
2022-11-20T11:06:16.566Z,1.90
2022-11-20T11:08:44.995Z,1.98
2022-11-20T11:11:19.189Z,3.83
2022-11-20T11:13:46.620Z,2.00
2022-11-20T11:16:21.467Z,2.20
2022-11-20T11:18:51.474Z,2.30
2022-11-20T11:21:23.982Z,1.10
2022-11-20T11:24:13.406Z,1.20
2022-11-20T11:26:53.263Z,0.55
2022-11-20T11:29:21.302Z,0.80
2022-11-20T11:31:48.923Z,0.68
2022-11-20T11:34:18.941Z,0.55
2022-11-20T11:36:54.523Z,1.02
2022-11-20T11:39:22.947Z,0.80
2022-11-20T11:41:50.603Z,1.30
2022-11-20T11:44:36.759Z,1.45
2022-11-20T11:47:05.312Z,1.25
2022-11-20T11:49:34.106Z,1.80
2022-11-20T11:52:04.018Z,1.60
2022-11-20T11:54:33.422Z,1.70
2022-11-20T11:57:02.405Z,1.77
2022-11-20T11:59:39.976Z,1.47
2022-11-20T12:02:12.643Z,1.70
2022-11-20T12:04:45.622Z,1.15
2022-11-20T12:07:44.106Z,1.33
2022-11-20T12:10:03.664Z,1.10
2022-11-20T12:12:33.822Z,0.98
2022-11-20T12:15:01.339Z,0.98
2022-11-20T12:17:28.811Z,1.17
2022-11-20T12:19:58.350Z,0.70
2022-11-20T12:22:32.749Z,0.60
2022-11-20T12:25:02.955Z,1.30
2022-11-20T12:27:39.271Z,1.10
2022-11-20T12:30:10.168Z,1.08
2022-11-20T12:33:01.771Z,1.33
2022-11-20T12:35:37.831Z,1.02
2022-11-20T12:38:16.979Z,0.57
2022-11-20T12:40:48.164Z,0.80
2022-11-20T12:43:36.785Z,0.77
2022-11-20T12:46:22.980Z,0.50
2022-11-20T12:49:08.223Z,0.60
2022-11-20T12:51:44.109Z,0.50
2022-11-20T12:54:30.041Z,1.02
2022-11-20T12:57:04.052Z,0.65
2022-11-20T12:59:40.573Z,0.88
2022-11-20T13:02:16.074Z,1.67
2022-11-20T13:04:59.876Z,2.10
2022-11-20T13:07:29.531Z,1.95
2022-11-20T13:09:57.469Z,1.95
2022-11-20T13:12:27.447Z,2.67
2022-11-20T13:17:24.393Z,2.67
2022-11-20T13:19:53.240Z,3.15
2022-11-20T13:22:26.002Z,2.60
2022-11-20T13:24:54.799Z,3.00
2022-11-20T13:27:24.044Z,3.72
2022-11-20T13:30:14.458Z,2.38
2022-11-20T13:32:49.784Z,2.90
2022-11-20T13:35:25.976Z,3.00
2022-11-20T13:38:01.731Z,3.13
2022-11-20T13:40:30.516Z,2.85
2022-11-20T13:43:03.136Z,3.95
2022-11-20T13:45:31.400Z,3.53
2022-11-20T13:47:59.505Z,3.00
2022-11-20T13:50:40.152Z,2.50
2022-11-20T13:53:12.073Z,3.20
2022-11-20T13:55:46.770Z,4.60
2022-11-20T13:58:32.923Z,3.92
2022-11-20T14:01:02.313Z,5.13
2022-11-20T14:04:04.147Z,5.20
2022-11-20T14:06:27.198Z,5.93
2022-11-20T14:08:54.804Z,8.52
2022-11-20T14:11:25.233Z,6.38
2022-11-20T14:14:00.593Z,10.85
2022-11-20T14:16:29.603Z,7.07
2022-11-20T14:18:57.859Z,3.30
2022-11-20T14:21:26.738Z,3.67
2022-11-20T14:23:55.153Z,3.72
2022-11-20T14:26:23.954Z,4.82
2022-11-20T14:28:53.568Z,4.82
2022-11-20T14:31:24.859Z,4.63
2022-11-20T14:33:52.778Z,4.97
2022-11-20T14:36:21.867Z,5.07
2022-11-20T14:38:49.330Z,5.15
2022-11-20T14:41:20.450Z,6.40
2022-11-20T14:43:51.860Z,5.57
2022-11-20T14:46:19.444Z,6.05
2022-11-20T14:48:48.175Z,6.20
2022-11-20T14:51:26.556Z,6.88
2022-11-20T14:53:53.983Z,8.13
2022-11-20T14:56:23.363Z,7.35
2022-11-20T14:58:58.815Z,9.00
2022-11-20T15:01:38.694Z,11.57
2022-11-20T15:06:34.728Z,11.57
2022-11-20T15:09:02.190Z,11.68
2022-11-20T15:11:31.264Z,10.40
2022-11-20T15:14:05.012Z,11.30
2022-11-20T15:16:32.790Z,12.45
2022-11-20T15:19:04.141Z,14.10
2022-11-20T15:21:31.524Z,15.13
2022-11-20T15:23:59.248Z,13.82
2022-11-20T15:26:30.271Z,12.05
2022-11-20T15:28:57.892Z,10.35
2022-11-20T15:31:26.639Z,7.10
2022-11-20T15:33:54.011Z,7.40
2022-11-20T15:36:21.488Z,6.10
2022-11-20T15:38:48.935Z,5.57
2022-11-20T15:41:16.340Z,5.38
2022-11-20T15:43:43.710Z,5.65
2022-11-20T15:46:13.399Z,7.47
2022-11-20T15:48:47.874Z,7.95
2022-11-20T15:51:23.579Z,4.75
2022-11-20T15:53:50.964Z,3.05
2022-11-20T15:56:20.531Z,3.38
2022-11-20T15:58:47.905Z,4.30
2022-11-20T16:01:18.979Z,5.70
2022-11-20T16:03:50.505Z,6.85
2022-11-20T16:06:18.072Z,6.05
2022-11-20T16:08:45.703Z,5.53
2022-11-20T16:11:14.728Z,4.82
2022-11-20T16:14:00.742Z,5.20
2022-11-20T16:16:31.014Z,5.25
2022-11-20T16:19:00.178Z,3.95
2022-11-20T16:21:31.997Z,4.22
2022-11-20T16:23:59.585Z,3.78
2022-11-20T16:26:27.001Z,4.13
2022-11-20T16:28:54.707Z,4.10
2022-11-20T16:31:22.512Z,3.53
2022-11-20T16:33:53.290Z,3.05
2022-11-20T16:36:22.533Z,3.38
2022-11-20T16:38:53.453Z,3.33
2022-11-20T16:41:20.825Z,3.25
2022-11-20T16:43:48.636Z,3.60
2022-11-20T16:46:16.595Z,2.72
2022-11-20T16:48:44.061Z,3.30
2022-11-20T16:51:12.124Z,4.30
2022-11-20T16:53:43.542Z,4.05
2022-11-20T16:56:14.739Z,4.38
2022-11-20T16:58:42.106Z,3.63
2022-11-20T17:01:10.920Z,3.78
2022-11-20T17:03:39.017Z,3.80
2022-11-20T17:06:13.461Z,3.72
2022-11-20T17:08:42.285Z,3.25
2022-11-20T17:11:10.151Z,3.10
2022-11-20T17:13:39.954Z,3.38
2022-11-20T17:16:08.423Z,3.50
2022-11-20T17:18:35.850Z,3.25
2022-11-20T17:21:05.328Z,3.65
2022-11-20T17:23:36.992Z,3.25
2022-11-20T17:26:07.895Z,3.88
2022-11-20T17:28:35.476Z,3.67
2022-11-20T17:31:03.568Z,4.30
2022-11-20T17:33:31.100Z,3.65
2022-11-20T17:35:58.595Z,2.72
2022-11-20T17:38:26.088Z,3.60
2022-11-20T17:40:55.768Z,3.40
2022-11-20T17:43:24.541Z,3.63
2022-11-20T17:45:51.961Z,3.70
2022-11-20T17:48:20.747Z,3.22
2022-11-20T17:50:48.120Z,3.50
2022-11-20T17:53:16.245Z,4.10
2022-11-20T17:56:09.630Z,1.55
2022-11-20T17:58:38.386Z,3.25
2022-11-20T18:01:08.154Z,4.70
2022-11-20T18:03:40.747Z,4.32
2022-11-20T18:06:13.093Z,3.92
2022-11-20T18:08:40.824Z,2.92
2022-11-20T18:11:15.710Z,3.20
2022-11-20T18:14:07.109Z,4.35
2022-11-20T18:16:35.356Z,4.38
2022-11-20T18:19:03.051Z,5.20
2022-11-20T18:21:31.276Z,5.22
2022-11-20T18:23:59.190Z,5.22
2022-11-20T18:26:26.953Z,5.35
2022-11-20T18:28:55.972Z,5.05
2022-11-20T18:31:23.480Z,4.73
2022-11-20T18:33:52.545Z,4.45
2022-11-20T18:36:20.811Z,5.27
2022-11-20T18:38:48.937Z,4.38
2022-11-20T18:41:31.740Z,4.68
2022-11-20T18:44:18.187Z,4.28
2022-11-20T18:46:47.800Z,3.97
2022-11-20T18:49:19.854Z,5.05
2022-11-20T18:51:47.273Z,4.43
2022-11-20T18:54:14.949Z,5.28
2022-11-20T18:56:42.411Z,5.38
2022-11-20T18:59:14.310Z,6.05
2022-11-20T19:01:41.803Z,5.13
2022-11-20T19:04:09.765Z,5.50
2022-11-20T19:06:40.493Z,5.25
2022-11-20T19:09:09.281Z,5.50
2022-11-20T19:11:36.740Z,5.78
2022-11-20T19:14:04.235Z,5.65
2022-11-20T19:16:33.333Z,5.53
2022-11-20T19:19:05.608Z,5.47
2022-11-20T19:21:33.267Z,4.82
2022-11-20T19:24:04.912Z,4.93
2022-11-20T19:26:32.398Z,5.20
2022-11-20T19:29:02.317Z,5.43
2022-11-20T19:34:00.649Z,4.65
2022-11-20T19:36:28.783Z,5.72
2022-11-20T19:38:56.857Z,5.50
2022-11-20T19:41:28.971Z,6.10
2022-11-20T19:43:57.579Z,5.18
2022-11-20T19:46:25.456Z,5.43
2022-11-20T19:48:52.982Z,5.97
2022-11-20T19:51:22.872Z,4.88
2022-11-20T19:56:17.508Z,5.50
2022-11-20T19:58:44.941Z,6.50
2022-11-20T20:01:14.819Z,5.00
2022-11-20T20:06:10.553Z,5.15
2022-11-20T20:08:39.325Z,5.38
2022-11-20T20:11:13.896Z,4.82
2022-11-20T20:13:41.608Z,5.50
2022-11-20T20:16:09.340Z,7.30
2022-11-20T20:18:39.109Z,8.20
2022-11-20T20:21:07.124Z,7.63
2022-11-20T20:23:35.463Z,7.28
2022-11-20T20:26:06.213Z,7.35
2022-11-20T20:28:34.238Z,8.10
2022-11-20T20:31:06.528Z,8.50
2022-11-20T20:33:33.948Z,7.53
2022-11-20T20:36:01.329Z,7.13
2022-11-20T20:38:28.727Z,6.88
2022-11-20T20:40:58.054Z,6.57
2022-11-20T20:43:28.182Z,5.50
2022-11-20T20:45:55.983Z,5.53
2022-11-20T20:48:24.645Z,5.40
2022-11-20T20:50:55.610Z,5.20
2022-11-20T20:53:23.425Z,5.65
2022-11-20T20:55:57.089Z,6.95
2022-11-20T20:58:25.764Z,7.32
2022-11-20T21:00:56.095Z,8.45
2022-11-20T21:03:23.523Z,8.20
2022-11-20T21:05:56.647Z,9.05
2022-11-20T21:08:24.919Z,8.43
2022-11-20T21:10:53.085Z,7.57
2022-11-20T21:13:21.047Z,4.18
2022-11-20T21:15:49.761Z,4.25
2022-11-20T21:18:19.678Z,5.57
2022-11-20T21:23:32.488Z,2.45
2022-11-20T21:26:01.397Z,4.50
2022-11-20T21:28:28.833Z,4.53
2022-11-20T21:31:04.577Z,4.10
2022-11-20T21:33:37.987Z,4.03
2022-11-20T21:36:05.916Z,3.80
2022-11-20T21:38:33.358Z,4.93
2022-11-20T21:41:00.886Z,4.43
2022-11-20T21:43:28.354Z,3.85
2022-11-20T21:46:01.019Z,4.25
2022-11-20T21:48:29.053Z,5.03
2022-11-20T21:51:06.470Z,5.05
2022-11-20T21:53:34.387Z,4.88
2022-11-20T21:56:04.099Z,4.50
2022-11-20T21:58:31.522Z,5.13
2022-11-20T22:00:58.978Z,5.18
2022-11-20T22:03:27.676Z,4.88
2022-11-20T22:05:56.501Z,5.53
2022-11-20T22:08:25.820Z,5.32
2022-11-20T22:10:56.727Z,4.93
2022-11-20T22:13:41.858Z,4.50
2022-11-20T22:16:09.299Z,4.35
2022-11-20T22:18:36.934Z,4.63
2022-11-20T22:21:05.191Z,4.97
2022-11-20T22:23:33.985Z,5.15
2022-11-20T22:26:05.478Z,5.28
2022-11-20T22:28:33.190Z,4.90
2022-11-20T22:31:00.789Z,6.00
2022-11-20T22:33:28.516Z,5.53
2022-11-20T22:36:00.239Z,5.40
2022-11-20T22:38:29.653Z,5.68
2022-11-20T22:41:03.941Z,5.72
2022-11-20T22:43:31.475Z,4.90
2022-11-20T22:46:03.257Z,4.85
2022-11-20T22:48:30.638Z,6.28
2022-11-20T22:51:01.146Z,6.22
2022-11-20T22:53:28.559Z,5.80
2022-11-20T22:55:56.195Z,6.00
2022-11-20T22:58:24.949Z,6.13
2022-11-20T23:00:52.374Z,5.22
2022-11-20T23:03:19.821Z,5.63
2022-11-20T23:05:47.311Z,5.43
2022-11-20T23:08:14.705Z,5.82
2022-11-20T23:10:42.078Z,5.93
2022-11-20T23:13:09.454Z,5.45
2022-11-20T23:15:38.190Z,5.82
2022-11-20T23:18:05.655Z,6.63
2022-11-20T23:20:33.080Z,5.88
2022-11-20T23:23:00.461Z,6.15
2022-11-20T23:25:27.930Z,6.00
2022-11-20T23:27:55.325Z,6.50
2022-11-20T23:30:22.727Z,6.10
2022-11-20T23:32:51.522Z,5.47
2022-11-20T23:35:18.913Z,5.60
2022-11-20T23:37:46.301Z,5.07
2022-11-20T23:40:13.735Z,6.05
2022-11-20T23:43:02.150Z,6.05
2022-11-20T23:45:29.540Z,5.20
2022-11-20T23:47:58.331Z,5.72
2022-11-20T23:50:25.723Z,6.22
2022-11-20T23:52:53.136Z,5.53
2022-11-20T23:55:20.505Z,6.20
2022-11-20T23:57:48.011Z,5.97
